Orbital elements of BREEZE-M DEB
| Launched | 19 March 2010 |
| Flight ended | – |
| Launch site | Tyuratam Missile and Space Center, Kazakhstan (Also known as Baikonur Cosmodrome) |
| Owner | Commonwealth of Independent States (former USSR) |
| NORAD ID | 36501 |
| Alternative names |
TANK |
| Date fetched |
Epoch osculation |
Inc. [°] |
Ecc. | RA asc node [hr] |
Arg Peri. [°] |
Mean anom [°] |
Mean motion [rev/day] |
Abs. mag |
| Date fetched |
Epoch osculation |
Inc. [°] |
Ecc. | RA asc node [hr] |
Arg Peri. [°] |
Mean anom [°] |
Mean motion [rev/day] |
Abs. mag |
| 2026 May 05 17:57 | 2026 May 04 12:20:11 | 49.6309 | 0.47840 | 15.4508 | 130.1859 | 282.7238 | 5.97363 | 4.743 |
| 2026 May 04 17:57 | 2026 Apr 30 11:57:27 | 49.6309 | 0.47848 | 15.7025 | 126.9866 | 282.7238 | 5.97363 | 4.743 |
| 2026 May 03 17:57 | 2026 Apr 30 11:57:27 | 49.6309 | 0.47848 | 15.7025 | 126.9866 | 282.7238 | 5.97363 | 4.743 |
| 2026 May 02 17:57 | 2026 Apr 30 11:57:27 | 49.6309 | 0.47848 | 15.7025 | 126.9866 | 282.7238 | 5.97363 | 4.743 |
| 2026 May 01 17:56 | 2026 Apr 30 11:57:27 | 49.6309 | 0.47848 | 15.7025 | 126.9866 | 282.7238 | 5.97363 | 4.743 |
| 2026 Apr 30 17:56 | 2026 Apr 30 11:57:27 | 49.6309 | 0.47848 | 15.7025 | 126.9866 | 282.7238 | 5.97363 | 4.743 |
| 2026 Apr 29 17:57 | 2026 Apr 21 15:04:46 | 49.6346 | 0.47862 | 16.2593 | 119.9288 | 282.7238 | 5.97363 | 4.743 |
| 2026 Apr 28 17:56 | 2026 Apr 21 15:04:46 | 49.6346 | 0.47862 | 16.2593 | 119.9288 | 282.7238 | 5.97363 | 4.743 |
| 2026 Apr 27 17:58 | 2026 Apr 21 15:04:46 | 49.6346 | 0.47862 | 16.2593 | 119.9288 | 282.7238 | 5.97363 | 4.743 |
| 2026 Apr 26 17:58 | 2026 Apr 21 15:04:46 | 49.6346 | 0.47862 | 16.2593 | 119.9288 | 282.7238 | 5.97363 | 4.743 |
| 2026 Apr 25 17:58 | 2026 Apr 21 15:04:46 | 49.6346 | 0.47862 | 16.2593 | 119.9288 | 282.7238 | 5.97363 | 4.743 |
| 2026 Apr 24 17:59 | 2026 Apr 21 15:04:46 | 49.6346 | 0.47862 | 16.2593 | 119.9288 | 282.7238 | 5.97363 | 4.743 |
| 2026 Apr 23 17:57 | 2026 Apr 19 10:51:27 | 49.6371 | 0.47866 | 16.3957 | 118.1952 | 282.7238 | 5.97363 | 4.743 |
| 2026 Apr 22 17:57 | 2026 Apr 19 10:51:27 | 49.6371 | 0.47866 | 16.3957 | 118.1952 | 282.7238 | 5.97363 | 4.743 |
| 2026 Apr 21 17:57 | 2026 Apr 19 10:51:27 | 49.6371 | 0.47866 | 16.3957 | 118.1952 | 282.7238 | 5.97363 | 4.743 |
| 2026 Apr 20 17:57 | 2026 Apr 19 10:51:27 | 49.6371 | 0.47866 | 16.3957 | 118.1952 | 282.7238 | 5.97363 | 4.743 |
| 2026 Apr 19 17:58 | 2026 Apr 19 10:51:27 | 49.6371 | 0.47866 | 16.3957 | 118.1952 | 282.7238 | 5.97363 | 4.743 |
| 2026 Apr 18 17:56 | 2026 Apr 13 02:11:42 | 49.6387 | 0.47879 | 16.7949 | 113.1204 | 282.7238 | 5.97363 | 4.743 |
| 2026 Apr 16 17:57 | 2026 Apr 13 02:11:42 | 49.6387 | 0.47879 | 16.7949 | 113.1204 | 282.7238 | 5.97363 | 4.743 |
| 2026 Apr 14 17:57 | 2026 Apr 13 02:11:42 | 49.6387 | 0.47879 | 16.7949 | 113.1204 | 282.7238 | 5.97363 | 4.743 |
| 2026 Apr 13 17:57 | 2026 Apr 13 02:11:42 | 49.6387 | 0.47879 | 16.7949 | 113.1204 | 282.7238 | 5.97363 | 4.743 |
| 2026 Apr 12 17:57 | 2026 Apr 07 21:38:11 | 49.6378 | 0.47891 | 17.1205 | 108.9860 | 282.7238 | 5.97363 | 4.743 |
| 2026 Apr 11 17:57 | 2026 Apr 07 21:38:11 | 49.6378 | 0.47891 | 17.1205 | 108.9860 | 282.7238 | 5.97363 | 4.743 |
| 2026 Apr 10 17:58 | 2026 Apr 07 21:38:11 | 49.6378 | 0.47891 | 17.1205 | 108.9860 | 282.7238 | 5.97363 | 4.743 |
| 2026 Apr 09 18:01 | 2026 Apr 07 21:38:11 | 49.6378 | 0.47891 | 17.1205 | 108.9860 | 282.7238 | 5.97363 | 4.743 |
| 2026 Apr 08 17:57 | 2026 Apr 07 21:38:11 | 49.6378 | 0.47891 | 17.1205 | 108.9860 | 282.7238 | 5.97363 | 4.743 |